createdAt,value
2019-01-14T00:00:31.615Z,97797.37
2019-01-14T00:02:59.424Z,97805.13
2019-01-14T00:05:27.195Z,97796.34
2019-01-14T00:07:55.082Z,97799.00
2019-01-14T00:10:22.921Z,97795.12
2019-01-14T00:12:50.748Z,97805.77
2019-01-14T00:15:18.524Z,97810.61
2019-01-14T00:17:46.326Z,97809.72
2019-01-14T00:20:14.556Z,97815.55
2019-01-14T00:22:42.387Z,97825.09
2019-01-14T00:25:10.231Z,97825.56
2019-01-14T00:27:38.055Z,97828.48
2019-01-14T00:30:10.252Z,97837.22
2019-01-14T00:32:38.067Z,97838.47
2019-01-14T00:35:07.633Z,97838.19
2019-01-14T00:37:35.428Z,97852.04
2019-01-14T00:40:05.349Z,97856.84
2019-01-14T00:42:33.277Z,97864.64
2019-01-14T00:45:01.117Z,97875.20
2019-01-14T00:47:28.904Z,97879.69
2019-01-14T00:49:56.693Z,97880.55
2019-01-14T00:52:24.488Z,97887.19
2019-01-14T00:54:52.285Z,97892.34
2019-01-14T00:57:20.077Z,97888.32
2019-01-14T00:59:47.954Z,97889.41
2019-01-14T01:02:15.739Z,97894.23
2019-01-14T01:04:43.508Z,97894.69
2019-01-14T01:07:11.428Z,97893.30
2019-01-14T01:09:39.232Z,97907.34
2019-01-14T01:12:07.892Z,97904.02
2019-01-14T01:14:35.700Z,97911.88
2019-01-14T01:17:03.593Z,97921.44
2019-01-14T01:19:31.390Z,97927.09
2019-01-14T01:21:59.257Z,97931.67
2019-01-14T01:24:27.054Z,97930.95
2019-01-14T01:26:54.925Z,97935.39
2019-01-14T01:29:22.944Z,97948.42
2019-01-14T01:31:50.703Z,97940.41
2019-01-14T01:34:18.488Z,97953.30
2019-01-14T01:36:51.506Z,97955.20
2019-01-14T01:39:19.384Z,97963.09
2019-01-14T01:41:47.216Z,97961.31
2019-01-14T01:44:15.045Z,97967.36
2019-01-14T01:46:42.871Z,97971.00
2019-01-14T01:49:10.683Z,97966.84
2019-01-14T01:51:38.484Z,97974.72
2019-01-14T01:54:06.271Z,97980.47
2019-01-14T01:56:34.401Z,97985.04
2019-01-14T01:59:02.224Z,97982.09
2019-01-14T02:01:29.974Z,97990.93
2019-01-14T02:03:57.813Z,97990.59
2019-01-14T02:06:25.616Z,97993.55
2019-01-14T02:08:54.467Z,97997.80
2019-01-14T02:11:22.232Z,97993.73
2019-01-14T02:13:50.144Z,98000.77
2019-01-14T02:16:18.460Z,98000.60
2019-01-14T02:18:46.922Z,98013.97
2019-01-14T02:21:14.950Z,98022.39
2019-01-14T02:23:43.543Z,98028.80
2019-01-14T02:26:11.703Z,98033.73
2019-01-14T02:28:39.882Z,98040.10
2019-01-14T02:31:08.017Z,98052.33
2019-01-14T02:33:36.288Z,98057.42
2019-01-14T02:36:04.837Z,98058.24
2019-01-14T02:38:33.156Z,98053.16
2019-01-14T02:41:01.293Z,98062.41
2019-01-14T02:43:29.608Z,98067.84
2019-01-14T02:45:57.796Z,98073.00
2019-01-14T02:48:26.035Z,98072.45
2019-01-14T02:50:54.426Z,98077.30
2019-01-14T02:53:22.764Z,98077.27
2019-01-14T02:55:50.959Z,98078.84
2019-01-14T02:58:19.257Z,98076.89
2019-01-14T03:00:47.484Z,98079.42
2019-01-14T03:03:15.768Z,98079.47
2019-01-14T03:05:44.039Z,98078.70
2019-01-14T03:08:16.956Z,98079.28
2019-01-14T03:10:44.725Z,98084.05
2019-01-14T03:13:12.507Z,98091.36
2019-01-14T03:15:40.283Z,98090.16
2019-01-14T03:18:08.062Z,98099.27
2019-01-14T03:20:35.789Z,98095.00
2019-01-14T03:23:03.568Z,98101.88
2019-01-14T03:25:31.350Z,98099.26
2019-01-14T03:28:04.320Z,98100.94
2019-01-14T03:30:32.071Z,98101.97
2019-01-14T03:32:59.858Z,98100.57
2019-01-14T03:35:27.691Z,98105.36
2019-01-14T03:37:55.445Z,98103.92
2019-01-14T03:40:23.945Z,98107.17
2019-01-14T03:42:51.731Z,98109.28
2019-01-14T03:45:19.551Z,98114.16
2019-01-14T03:47:47.557Z,98112.49
2019-01-14T03:50:21.688Z,98115.89
2019-01-14T03:52:49.594Z,98117.23
2019-01-14T03:55:17.372Z,98117.95
2019-01-14T03:57:45.190Z,98127.30
2019-01-14T04:00:15.998Z,98128.91
2019-01-14T04:02:43.833Z,98141.80
2019-01-14T04:05:11.662Z,98150.58
2019-01-14T04:07:39.536Z,98157.89
2019-01-14T04:10:13.088Z,98159.12
2019-01-14T04:12:40.865Z,98174.09
2019-01-14T04:15:10.496Z,98174.34
2019-01-14T04:17:57.730Z,98179.70
2019-01-14T04:20:25.492Z,98177.88
2019-01-14T04:22:53.247Z,98177.90
2019-01-14T04:25:21.104Z,98182.32
2019-01-14T04:27:49.046Z,98197.39
2019-01-14T04:30:22.550Z,98204.74
2019-01-14T04:32:50.991Z,98214.49
2019-01-14T04:35:20.764Z,98226.42
2019-01-14T04:37:48.703Z,98224.95
2019-01-14T04:40:16.826Z,98238.51
2019-01-14T04:42:45.068Z,98235.75
2019-01-14T04:45:13.194Z,98250.95
2019-01-14T04:47:41.011Z,98252.72
2019-01-14T04:50:12.700Z,98251.81
2019-01-14T04:52:40.507Z,98255.12
2019-01-14T04:55:10.906Z,98266.59
2019-01-14T04:57:39.128Z,98274.92
2019-01-14T05:00:14.486Z,98273.13
2019-01-14T05:02:42.386Z,98283.19
2019-01-14T05:05:10.278Z,98286.28
2019-01-14T05:08:08.960Z,98301.20
2019-01-14T05:10:56.159Z,98306.25
2019-01-14T05:13:23.985Z,98309.46
2019-01-14T05:15:51.760Z,98320.42
2019-01-14T05:18:19.796Z,98321.42
2019-01-14T05:20:49.636Z,98330.76
2019-01-14T05:23:17.420Z,98336.84
2019-01-14T05:25:45.181Z,98331.02
2019-01-14T05:28:12.966Z,98337.59
2019-01-14T05:30:40.754Z,98338.95
2019-01-14T05:33:08.976Z,98341.78
2019-01-14T05:35:36.816Z,98345.23
2019-01-14T05:38:04.618Z,98348.51
2019-01-14T05:40:32.396Z,98355.05
2019-01-14T05:43:00.190Z,98365.47
2019-01-14T05:45:28.011Z,98363.52
2019-01-14T05:47:58.865Z,98358.80
2019-01-14T05:50:26.616Z,98366.09
2019-01-14T05:52:54.439Z,98363.47
2019-01-14T05:55:26.889Z,98358.94
2019-01-14T05:57:59.823Z,98367.44
2019-01-14T06:00:52.860Z,98376.75
2019-01-14T06:03:20.768Z,98377.63
2019-01-14T06:05:48.542Z,98380.08
2019-01-14T06:08:16.358Z,98382.50
2019-01-14T06:10:44.188Z,98390.47
2019-01-14T06:13:11.941Z,98383.78
2019-01-14T06:15:39.797Z,98392.10
2019-01-14T06:18:07.689Z,98397.30
2019-01-14T06:20:35.515Z,98403.14
2019-01-14T06:23:03.439Z,98404.61
2019-01-14T06:25:31.292Z,98404.94
2019-01-14T06:28:14.913Z,98412.74
2019-01-14T06:30:54.857Z,98419.11
2019-01-14T06:33:22.671Z,98420.23
2019-01-14T06:35:50.746Z,98425.64
2019-01-14T06:38:18.732Z,98425.16
2019-01-14T06:40:46.503Z,98422.89
2019-01-14T06:43:14.304Z,98426.98
2019-01-14T06:45:42.101Z,98433.33
2019-01-14T06:48:20.293Z,98435.83
2019-01-14T06:50:48.129Z,98441.02
2019-01-14T06:53:15.944Z,98439.08
2019-01-14T06:55:43.771Z,98443.95
2019-01-14T06:58:31.286Z,98445.92
2019-01-14T07:00:59.068Z,98434.03
2019-01-14T07:03:26.924Z,98452.09
2019-01-14T07:05:54.759Z,98459.61
2019-01-14T07:08:22.524Z,98458.80
2019-01-14T07:10:51.726Z,98461.89
2019-01-14T07:13:19.568Z,98461.38
2019-01-14T07:15:47.341Z,98466.77
2019-01-14T07:18:15.174Z,98475.23
2019-01-14T07:20:43.001Z,98478.31
2019-01-14T07:23:10.833Z,98477.00
2019-01-14T07:25:38.660Z,98484.84
2019-01-14T07:28:16.705Z,98485.33
2019-01-14T07:30:44.527Z,98490.04
2019-01-14T07:33:12.306Z,98466.88
2019-01-14T07:35:40.130Z,98499.66
2019-01-14T07:38:07.935Z,98501.61
2019-01-14T07:40:35.745Z,98500.47
2019-01-14T07:43:03.604Z,98508.61
2019-01-14T07:45:31.413Z,98513.32
2019-01-14T07:47:59.238Z,98519.03
2019-01-14T07:50:27.129Z,98522.61
2019-01-14T07:52:54.869Z,98519.32
2019-01-14T07:55:22.681Z,98529.42
2019-01-14T07:57:55.727Z,98534.96
2019-01-14T08:00:25.629Z,98537.25
2019-01-14T08:02:53.912Z,98535.14
2019-01-14T08:05:41.195Z,98531.36
2019-01-14T08:08:14.421Z,98535.42
2019-01-14T08:10:42.347Z,98502.97
2019-01-14T08:13:10.165Z,98536.88
2019-01-14T08:15:37.947Z,98541.45
2019-01-14T08:18:20.869Z,98539.30
2019-01-14T08:20:48.702Z,98562.81
2019-01-14T08:23:16.484Z,98568.19
2019-01-14T08:25:44.269Z,98585.69
2019-01-14T08:28:12.069Z,98585.99
2019-01-14T08:30:39.866Z,98589.44
2019-01-14T08:33:07.610Z,98603.28
2019-01-14T08:35:35.514Z,98611.61
2019-01-14T08:38:21.263Z,98610.80
2019-01-14T08:41:08.103Z,98617.32
2019-01-14T08:43:37.420Z,98614.89
2019-01-14T08:46:05.306Z,98621.94
2019-01-14T08:48:33.147Z,98619.03
2019-01-14T08:51:00.950Z,98620.83
2019-01-14T08:53:29.960Z,98627.67
2019-01-14T08:55:57.730Z,98629.63
2019-01-14T08:58:25.475Z,98630.09
2019-01-14T09:00:53.247Z,98638.78
2019-01-14T09:03:21.058Z,98643.84
2019-01-14T09:05:48.846Z,98640.88
2019-01-14T09:08:28.510Z,98637.77
2019-01-14T09:10:51.395Z,98639.89
2019-01-14T09:13:19.160Z,98637.27
2019-01-14T09:15:47.418Z,98635.16
2019-01-14T09:18:17.097Z,98632.72
2019-01-14T09:20:44.896Z,98629.60
2019-01-14T09:23:12.734Z,98637.76
2019-01-14T09:25:40.494Z,98648.05
2019-01-14T09:28:08.334Z,98646.88
2019-01-14T09:30:36.185Z,98645.73
2019-01-14T09:33:04.076Z,98635.45
2019-01-14T09:35:31.893Z,98633.64
2019-01-14T09:37:59.705Z,98629.18
2019-01-14T09:40:27.519Z,98629.92
2019-01-14T09:42:55.316Z,98630.50
2019-01-14T09:45:23.258Z,98636.33
2019-01-14T09:48:06.125Z,98636.45
2019-01-14T09:50:33.907Z,98635.13
2019-01-14T09:53:01.739Z,98638.58
2019-01-14T09:55:29.567Z,98643.81
2019-01-14T09:57:57.368Z,98646.98
2019-01-14T10:00:25.191Z,98641.47
2019-01-14T10:02:55.525Z,98636.30
2019-01-14T10:05:22.648Z,98637.14
2019-01-14T10:07:50.533Z,98635.70
2019-01-14T10:10:19.342Z,98639.73
2019-01-14T10:12:47.098Z,98640.75
2019-01-14T10:15:20.793Z,98643.48
2019-01-14T10:18:04.588Z,98647.25
2019-01-14T10:20:32.457Z,98644.92
2019-01-14T10:23:19.722Z,98643.66
2019-01-14T10:25:47.616Z,98641.88
2019-01-14T10:28:17.729Z,98623.08
2019-01-14T10:30:45.591Z,98629.10
2019-01-14T10:33:13.365Z,98632.41
2019-01-14T10:35:41.207Z,98630.89
2019-01-14T10:38:08.984Z,98641.31
2019-01-14T10:40:36.790Z,98625.62
2019-01-14T10:43:04.658Z,98613.72
2019-01-14T10:45:33.227Z,98616.10
2019-01-14T10:48:01.133Z,98604.48
2019-01-14T10:50:29.519Z,98604.05
2019-01-14T10:52:57.290Z,98608.23
2019-01-14T10:55:25.081Z,98611.06
2019-01-14T10:57:52.965Z,98616.06
2019-01-14T11:00:24.269Z,98606.55
2019-01-14T11:02:52.766Z,98618.60
2019-01-14T11:05:25.049Z,98612.09
2019-01-14T11:07:52.945Z,98605.22
2019-01-14T11:10:20.925Z,98605.33
2019-01-14T11:12:48.715Z,98599.78
2019-01-14T11:15:16.596Z,98601.40
2019-01-14T11:17:44.583Z,98606.59
2019-01-14T11:20:19.805Z,98599.13
2019-01-14T11:22:47.546Z,98590.70
2019-01-14T11:25:17.274Z,98604.80
2019-01-14T11:27:45.138Z,98601.79
2019-01-14T11:30:18.244Z,98604.28
2019-01-14T11:32:46.063Z,98584.05
2019-01-14T11:35:13.876Z,98621.55
2019-01-14T11:37:41.738Z,98609.02
2019-01-14T11:40:13.386Z,98609.13
2019-01-14T11:42:41.180Z,98621.51
2019-01-14T11:45:10.977Z,98633.00
2019-01-14T11:47:38.760Z,98624.09
2019-01-14T11:50:09.526Z,98617.23
2019-01-14T11:52:37.301Z,98630.16
2019-01-14T11:55:06.565Z,98638.41
2019-01-14T11:57:34.348Z,98609.19
2019-01-14T12:00:02.789Z,98635.58
2019-01-14T12:02:30.633Z,98631.16
2019-01-14T12:04:58.429Z,98618.36
2019-01-14T12:07:26.288Z,98640.59
2019-01-14T12:09:53.999Z,98635.27
2019-01-14T12:12:21.791Z,98652.52
2019-01-14T12:14:50.112Z,98652.08
2019-01-14T12:17:18.320Z,98646.34
2019-01-14T12:19:46.175Z,98656.84
2019-01-14T12:22:14.001Z,98655.49
2019-01-14T12:24:41.837Z,98664.30
2019-01-14T12:27:09.692Z,98662.34
2019-01-14T12:29:37.607Z,98663.38
2019-01-14T12:32:05.409Z,98651.13
2019-01-14T12:34:37.929Z,98655.70
2019-01-14T12:37:08.367Z,98659.73
2019-01-14T12:39:36.182Z,98674.77
2019-01-14T12:42:04.087Z,98673.72
2019-01-14T12:44:31.950Z,98692.70
2019-01-14T12:46:59.816Z,98679.08
2019-01-14T12:49:27.598Z,98682.50
2019-01-14T12:51:55.349Z,98692.53
2019-01-14T12:54:23.136Z,98691.66
2019-01-14T12:56:58.789Z,98695.18
2019-01-14T12:59:26.600Z,98697.17
2019-01-14T13:01:56.003Z,98693.15
2019-01-14T13:04:23.802Z,98686.53
2019-01-14T13:06:56.696Z,98686.18
2019-01-14T13:09:26.854Z,98691.92
2019-01-14T13:11:54.180Z,98691.89
2019-01-14T13:14:21.948Z,98693.13
2019-01-14T13:16:49.748Z,98706.50
2019-01-14T13:19:17.549Z,98711.20
2019-01-14T13:21:45.333Z,98727.82
2019-01-14T13:24:13.142Z,98724.53
2019-01-14T13:26:46.004Z,98733.77
2019-01-14T13:29:15.219Z,98735.39
2019-01-14T13:31:43.268Z,98752.09
2019-01-14T13:34:11.098Z,98739.47
2019-01-14T13:36:44.015Z,98753.58
2019-01-14T13:39:11.973Z,98753.67
2019-01-14T13:41:39.792Z,98769.10
2019-01-14T13:44:07.586Z,98762.66
2019-01-14T13:46:35.370Z,98766.78
2019-01-14T13:49:03.199Z,98770.98
2019-01-14T13:51:31.135Z,98761.81
2019-01-14T13:53:58.997Z,98780.44
2019-01-14T13:56:27.109Z,98777.81
2019-01-14T13:58:55.522Z,98767.19
2019-01-14T14:01:23.656Z,98787.85
2019-01-14T14:03:51.620Z,98789.73
2019-01-14T14:06:19.491Z,98790.78
2019-01-14T14:08:47.800Z,98791.94
2019-01-14T14:11:16.407Z,98801.83
2019-01-14T14:13:44.223Z,98805.70
2019-01-14T14:16:12.050Z,98798.34
2019-01-14T14:18:39.967Z,98805.50
2019-01-14T14:21:07.829Z,98814.27
2019-01-14T14:23:40.468Z,98810.77
2019-01-14T14:26:08.353Z,98797.61
2019-01-14T14:28:36.233Z,98802.75
2019-01-14T14:31:06.473Z,98788.05
2019-01-14T14:33:34.292Z,98812.17
2019-01-14T14:36:04.999Z,98820.37
2019-01-14T14:38:34.793Z,98832.67
2019-01-14T14:41:03.419Z,98835.82
2019-01-14T14:43:33.515Z,98827.00
2019-01-14T14:46:01.771Z,98837.46
2019-01-14T14:48:52.580Z,98835.20
2019-01-14T14:51:20.853Z,98839.44
2019-01-14T14:53:48.657Z,98845.98
2019-01-14T14:56:16.594Z,98858.23
2019-01-14T14:58:44.769Z,98870.48
2019-01-14T15:01:13.020Z,98868.19
2019-01-14T15:03:44.225Z,98873.25
2019-01-14T15:06:12.637Z,98884.67
2019-01-14T15:08:40.783Z,98886.59
2019-01-14T15:11:11.799Z,98893.27
2019-01-14T15:13:39.984Z,98902.55
2019-01-14T15:16:09.163Z,98891.42
2019-01-14T15:18:43.617Z,98910.04
2019-01-14T15:21:12.159Z,98913.27
2019-01-14T15:23:44.431Z,98909.19
2019-01-14T15:26:12.883Z,98929.40
2019-01-14T15:28:41.255Z,98934.77
2019-01-14T15:31:09.693Z,98942.45
2019-01-14T15:33:37.938Z,98954.78
2019-01-14T15:36:06.754Z,98959.34
2019-01-14T15:38:35.165Z,98955.88
2019-01-14T15:41:03.675Z,98960.89
2019-01-14T15:43:31.991Z,98973.06
2019-01-14T15:46:00.436Z,98977.59
2019-01-14T15:48:28.781Z,98982.58
2019-01-14T15:50:56.590Z,98984.17
2019-01-14T15:53:24.597Z,98981.21
2019-01-14T15:55:52.442Z,98984.95
2019-01-14T15:58:20.297Z,98986.09
2019-01-14T16:00:48.449Z,98993.52
2019-01-14T16:03:16.295Z,99000.83
2019-01-14T16:05:44.133Z,99004.58
2019-01-14T16:08:12.054Z,99008.69
2019-01-14T16:10:39.912Z,99013.62
2019-01-14T16:13:07.772Z,99011.73
2019-01-14T16:15:35.586Z,99030.05
2019-01-14T16:18:06.661Z,99041.02
2019-01-14T16:20:34.480Z,99043.20
2019-01-14T16:23:02.881Z,99050.09
2019-01-14T16:25:31.128Z,99053.55
2019-01-14T16:28:04.262Z,99064.17
2019-01-14T16:30:32.071Z,99067.31
2019-01-14T16:32:59.936Z,99073.38
2019-01-14T16:35:27.742Z,99088.22
2019-01-14T16:38:00.703Z,99092.48
2019-01-14T16:40:28.800Z,99105.36
2019-01-14T16:42:56.655Z,99115.33
2019-01-14T16:45:27.898Z,99110.69
2019-01-14T16:47:55.937Z,99127.36
2019-01-14T16:50:24.090Z,99134.06
2019-01-14T16:52:54.390Z,99131.81
2019-01-14T16:55:57.048Z,99144.36
2019-01-14T16:58:31.332Z,99134.08
2019-01-14T17:01:02.832Z,99008.10
2019-01-14T17:03:30.618Z,99139.30
2019-01-14T17:05:58.448Z,99153.54
2019-01-14T17:08:31.464Z,99151.81
2019-01-14T17:10:59.248Z,99146.48
2019-01-14T17:13:27.068Z,99163.80
2019-01-14T17:15:54.852Z,99169.22
2019-01-14T17:18:22.672Z,99178.94
2019-01-14T17:21:09.934Z,99185.66
2019-01-14T17:23:37.735Z,99198.53
2019-01-14T17:26:05.503Z,99200.27
2019-01-14T17:28:48.345Z,99213.21
2019-01-14T17:31:16.175Z,99207.43
2019-01-14T17:33:44.008Z,99216.91
2019-01-14T17:36:11.760Z,99222.47
2019-01-14T17:38:44.578Z,99225.23
2019-01-14T17:41:12.456Z,99236.00
2019-01-14T17:43:40.247Z,99248.88
2019-01-14T17:46:08.143Z,99260.81
2019-01-14T17:48:46.065Z,99264.24
2019-01-14T17:51:13.882Z,99263.34
2019-01-14T17:53:41.683Z,99269.79
2019-01-14T17:56:09.489Z,99270.58
2019-01-14T17:58:37.315Z,99272.33
2019-01-14T18:01:05.094Z,99275.83
2019-01-14T18:03:32.985Z,99276.48
2019-01-14T18:06:00.891Z,99278.06
2019-01-14T18:08:29.483Z,99280.69
2019-01-14T18:11:01.761Z,99285.84
2019-01-14T18:13:29.498Z,99298.20
2019-01-14T18:16:01.038Z,99299.39
2019-01-14T18:18:29.294Z,99295.88
2019-01-14T18:20:57.602Z,99301.14
2019-01-14T18:23:26.258Z,99314.69
2019-01-14T18:26:01.613Z,99318.97
2019-01-14T18:28:31.289Z,99322.43
2019-01-14T18:30:59.123Z,99329.16
2019-01-14T18:33:46.433Z,99339.00
2019-01-14T18:36:14.233Z,99340.66
2019-01-14T18:39:06.900Z,99343.84
2019-01-14T18:41:38.456Z,99347.54
2019-01-14T18:44:09.104Z,99346.27
2019-01-14T18:46:42.915Z,99357.00
2019-01-14T18:49:11.215Z,99361.35
2019-01-14T18:51:41.510Z,99362.91
2019-01-14T18:54:10.612Z,99363.20
2019-01-14T18:56:40.728Z,99369.55
2019-01-14T18:59:08.527Z,99372.41
2019-01-14T19:01:43.215Z,99370.67
2019-01-14T19:04:11.230Z,99378.60
2019-01-14T19:06:39.847Z,99377.55
2019-01-14T19:09:08.870Z,99374.75
2019-01-14T19:11:39.792Z,99382.88
2019-01-14T19:14:07.951Z,99382.30
2019-01-14T19:16:36.753Z,99388.37
2019-01-14T19:19:04.749Z,99398.20
2019-01-14T19:21:35.553Z,99401.03
2019-01-14T19:24:04.096Z,99408.75
2019-01-14T19:26:31.950Z,99413.67
2019-01-14T19:28:59.826Z,99422.44
2019-01-14T19:31:28.787Z,99427.41
2019-01-14T19:33:58.076Z,99423.07
2019-01-14T19:36:26.066Z,99424.74
2019-01-14T19:38:59.111Z,99430.33
2019-01-14T19:41:27.942Z,99430.22
2019-01-14T19:43:55.968Z,99441.78
2019-01-14T19:46:32.530Z,99437.82
2019-01-14T19:49:01.815Z,99444.97
2019-01-14T19:51:29.981Z,99448.43
2019-01-14T19:53:58.658Z,99452.72
2019-01-14T19:56:27.154Z,99451.31
2019-01-14T19:58:55.885Z,99448.00
2019-01-14T20:01:24.988Z,99447.84
2019-01-14T20:03:52.940Z,99447.44
2019-01-14T20:06:20.827Z,99444.39
2019-01-14T20:08:48.591Z,99451.93
2019-01-14T20:11:16.433Z,99458.14
2019-01-14T20:13:44.284Z,99458.59
2019-01-14T20:16:12.170Z,99460.66
2019-01-14T20:18:45.834Z,99467.44
2019-01-14T20:21:13.795Z,99462.41
2019-01-14T20:23:41.643Z,99468.91
2019-01-14T20:26:12.524Z,99462.94
2019-01-14T20:28:50.549Z,99461.64
2019-01-14T20:31:18.313Z,99462.84
2019-01-14T20:33:46.322Z,99470.44
2019-01-14T20:36:14.124Z,99461.42
2019-01-14T20:38:42.131Z,99466.66
2019-01-14T20:41:16.312Z,99465.52
2019-01-14T20:43:39.832Z,99472.70
2019-01-14T20:46:07.675Z,99462.28
2019-01-14T20:48:35.600Z,99463.59
2019-01-14T20:51:03.541Z,99463.36
2019-01-14T20:53:31.361Z,99462.94
2019-01-14T20:55:59.195Z,99460.52
2019-01-14T20:58:27.030Z,99453.28
2019-01-14T21:00:54.967Z,99470.64
2019-01-14T21:03:22.844Z,99468.06
2019-01-14T21:05:51.010Z,99450.77
2019-01-14T21:08:18.788Z,99435.38
2019-01-14T21:10:46.686Z,99472.22
2019-01-14T21:13:14.500Z,99473.55
2019-01-14T21:16:02.866Z,99477.08
2019-01-14T21:18:31.217Z,99482.24
2019-01-14T21:20:59.146Z,99482.45
2019-01-14T21:23:26.980Z,99488.76
2019-01-14T21:25:54.841Z,99494.84
2019-01-14T21:28:22.666Z,99502.70
2019-01-14T21:30:50.467Z,99504.23
2019-01-14T21:33:18.618Z,99506.37
2019-01-14T21:35:46.584Z,99505.97
2019-01-14T21:38:14.454Z,99514.16
2019-01-14T21:40:43.036Z,99517.35
2019-01-14T21:43:12.201Z,99516.55
2019-01-14T21:45:44.645Z,99521.56
2019-01-14T21:48:17.657Z,99524.20
2019-01-14T21:51:05.292Z,99523.91
2019-01-14T21:53:34.679Z,99526.40
2019-01-14T21:56:04.764Z,99528.05
2019-01-14T21:58:32.673Z,99533.70
2019-01-14T22:01:00.536Z,99531.97
2019-01-14T22:03:28.434Z,99537.59
2019-01-14T22:05:56.279Z,99537.83
2019-01-14T22:08:24.718Z,99542.48
2019-01-14T22:10:52.627Z,99549.41
2019-01-14T22:13:20.431Z,99544.20
2019-01-14T22:15:48.418Z,99543.70
2019-01-14T22:18:16.267Z,99548.09
2019-01-14T22:20:44.058Z,99548.11
2019-01-14T22:23:11.945Z,99548.60
2019-01-14T22:25:39.760Z,99550.59
2019-01-14T22:28:13.046Z,99551.22
2019-01-14T22:30:41.748Z,99554.12
2019-01-14T22:33:09.805Z,99548.03
2019-01-14T22:35:37.894Z,99555.03
2019-01-14T22:38:10.772Z,99555.35
2019-01-14T22:40:38.650Z,99557.92
2019-01-14T22:43:06.378Z,99552.31
2019-01-14T22:45:34.196Z,99549.55
2019-01-14T22:48:02.054Z,99557.90
2019-01-14T22:50:29.862Z,99552.36
2019-01-14T22:52:57.632Z,99546.30
2019-01-14T22:55:25.428Z,99554.11
2019-01-14T22:57:53.394Z,99558.48
2019-01-14T23:01:15.190Z,99564.00
2019-01-14T23:03:51.643Z,99566.65
2019-01-14T23:06:19.386Z,99569.80
2019-01-14T23:08:47.183Z,99566.91
2019-01-14T23:11:14.982Z,99562.52
2019-01-14T23:13:42.793Z,99569.59
2019-01-14T23:16:10.635Z,99572.73
2019-01-14T23:18:38.414Z,99571.44
2019-01-14T23:21:06.219Z,99580.87
2019-01-14T23:23:34.014Z,99577.77
2019-01-14T23:26:01.835Z,99578.48
2019-01-14T23:28:29.599Z,99588.58
2019-01-14T23:30:57.369Z,99587.45
2019-01-14T23:33:25.174Z,99595.86
2019-01-14T23:35:52.991Z,99592.59
2019-01-14T23:38:20.809Z,99594.52
2019-01-14T23:40:48.601Z,99598.91
2019-01-14T23:43:16.410Z,99601.67
2019-01-14T23:45:44.275Z,99602.81
2019-01-14T23:48:12.052Z,99597.79
2019-01-14T23:50:42.015Z,99602.03
2019-01-14T23:53:09.795Z,99605.45
2019-01-14T23:55:37.623Z,99605.26
2019-01-14T23:58:05.436Z,99604.42
